sensor_id;sensor_type;location;lat;lon;timestamp;P1;durP1;ratioP1;P2;durP2;ratioP2
33162;SDS011;29282;45.656;11.302;2022-12-07T00:01:06;6.43;;;4.75;;
33162;SDS011;29282;45.656;11.302;2022-12-07T00:03:34;5.93;;;4.28;;
33162;SDS011;29282;45.656;11.302;2022-12-07T00:06:01;8.55;;;4.53;;
33162;SDS011;29282;45.656;11.302;2022-12-07T00:08:27;6.93;;;4.85;;
33162;SDS011;29282;45.656;11.302;2022-12-07T00:10:54;6.10;;;4.57;;
33162;SDS011;29282;45.656;11.302;2022-12-07T00:13:20;5.40;;;4.30;;
33162;SDS011;29282;45.656;11.302;2022-12-07T00:15:45;5.30;;;4.13;;
33162;SDS011;29282;45.656;11.302;2022-12-07T00:18:11;8.75;;;4.18;;
33162;SDS011;29282;45.656;11.302;2022-12-07T00:20:37;9.65;;;4.65;;
33162;SDS011;29282;45.656;11.302;2022-12-07T00:23:02;7.75;;;4.50;;
33162;SDS011;29282;45.656;11.302;2022-12-07T00:25:28;4.90;;;4.15;;
33162;SDS011;29282;45.656;11.302;2022-12-07T00:27:54;6.07;;;4.40;;
33162;SDS011;29282;45.656;11.302;2022-12-07T00:30:21;6.72;;;4.45;;
33162;SDS011;29282;45.656;11.302;2022-12-07T00:32:48;5.22;;;4.18;;
33162;SDS011;29282;45.656;11.302;2022-12-07T00:35:13;4.80;;;4.03;;
33162;SDS011;29282;45.656;11.302;2022-12-07T00:37:39;6.22;;;4.07;;
33162;SDS011;29282;45.656;11.302;2022-12-07T00:40:05;5.22;;;4.10;;
33162;SDS011;29282;45.656;11.302;2022-12-07T00:42:31;6.03;;;4.22;;
33162;SDS011;29282;45.656;11.302;2022-12-07T00:44:57;5.13;;;3.75;;
33162;SDS011;29282;45.656;11.302;2022-12-07T00:47:22;5.82;;;4.25;;
33162;SDS011;29282;45.656;11.302;2022-12-07T00:49:48;5.45;;;4.38;;
33162;SDS011;29282;45.656;11.302;2022-12-07T00:52:13;5.53;;;3.80;;
33162;SDS011;29282;45.656;11.302;2022-12-07T00:54:39;4.63;;;3.67;;
33162;SDS011;29282;45.656;11.302;2022-12-07T00:57:05;6.13;;;4.20;;
33162;SDS011;29282;45.656;11.302;2022-12-07T00:59:30;5.28;;;3.92;;
33162;SDS011;29282;45.656;11.302;2022-12-07T01:01:56;4.80;;;3.80;;
33162;SDS011;29282;45.656;11.302;2022-12-07T01:04:21;5.88;;;3.80;;
33162;SDS011;29282;45.656;11.302;2022-12-07T01:06:47;7.78;;;4.40;;
33162;SDS011;29282;45.656;11.302;2022-12-07T01:09:12;5.85;;;4.20;;
33162;SDS011;29282;45.656;11.302;2022-12-07T01:11:38;4.72;;;3.58;;
33162;SDS011;29282;45.656;11.302;2022-12-07T01:14:03;4.93;;;3.40;;
33162;SDS011;29282;45.656;11.302;2022-12-07T01:16:29;4.65;;;3.83;;
33162;SDS011;29282;45.656;11.302;2022-12-07T01:18:56;5.68;;;3.65;;
33162;SDS011;29282;45.656;11.302;2022-12-07T01:21:27;4.97;;;3.63;;
33162;SDS011;29282;45.656;11.302;2022-12-07T01:23:54;8.07;;;3.67;;
33162;SDS011;29282;45.656;11.302;2022-12-07T01:26:22;4.97;;;3.60;;
33162;SDS011;29282;45.656;11.302;2022-12-07T01:28:49;6.05;;;4.10;;
33162;SDS011;29282;45.656;11.302;2022-12-07T01:31:16;4.43;;;3.50;;
33162;SDS011;29282;45.656;11.302;2022-12-07T01:33:44;6.32;;;3.90;;
33162;SDS011;29282;45.656;11.302;2022-12-07T01:36:25;5.70;;;4.10;;
33162;SDS011;29282;45.656;11.302;2022-12-07T01:38:55;4.88;;;3.53;;
33162;SDS011;29282;45.656;11.302;2022-12-07T01:41:26;4.97;;;3.80;;
33162;SDS011;29282;45.656;11.302;2022-12-07T01:46:44;4.70;;;3.38;;
33162;SDS011;29282;45.656;11.302;2022-12-07T01:49:16;4.40;;;3.40;;
33162;SDS011;29282;45.656;11.302;2022-12-07T01:51:46;5.07;;;3.45;;
33162;SDS011;29282;45.656;11.302;2022-12-07T01:54:14;5.40;;;3.50;;
33162;SDS011;29282;45.656;11.302;2022-12-07T01:56:47;5.03;;;3.83;;
33162;SDS011;29282;45.656;11.302;2022-12-07T01:59:17;4.90;;;3.65;;
33162;SDS011;29282;45.656;11.302;2022-12-07T02:01:44;5.20;;;3.35;;
33162;SDS011;29282;45.656;11.302;2022-12-07T02:04:10;4.03;;;3.58;;
33162;SDS011;29282;45.656;11.302;2022-12-07T02:06:36;5.88;;;3.58;;
33162;SDS011;29282;45.656;11.302;2022-12-07T02:09:02;4.43;;;3.40;;
33162;SDS011;29282;45.656;11.302;2022-12-07T02:11:29;4.28;;;3.45;;
33162;SDS011;29282;45.656;11.302;2022-12-07T02:13:55;4.38;;;3.55;;
33162;SDS011;29282;45.656;11.302;2022-12-07T02:30:14;5.13;;;3.60;;
33162;SDS011;29282;45.656;11.302;2022-12-07T02:32:56;5.15;;;3.45;;
33162;SDS011;29282;45.656;11.302;2022-12-07T02:35:38;4.78;;;3.45;;
33162;SDS011;29282;45.656;11.302;2022-12-07T02:41:09;4.63;;;3.10;;
33162;SDS011;29282;45.656;11.302;2022-12-07T02:43:52;3.50;;;3.20;;
33162;SDS011;29282;45.656;11.302;2022-12-07T02:46:28;4.93;;;3.50;;
33162;SDS011;29282;45.656;11.302;2022-12-07T02:48:58;4.75;;;3.40;;
33162;SDS011;29282;45.656;11.302;2022-12-07T02:51:29;4.15;;;3.05;;
33162;SDS011;29282;45.656;11.302;2022-12-07T02:53:55;4.75;;;2.88;;
33162;SDS011;29282;45.656;11.302;2022-12-07T02:56:33;3.42;;;3.10;;
33162;SDS011;29282;45.656;11.302;2022-12-07T03:01:48;5.00;;;3.08;;
33162;SDS011;29282;45.656;11.302;2022-12-07T03:07:01;4.53;;;2.88;;
33162;SDS011;29282;45.656;11.302;2022-12-07T03:09:37;3.85;;;3.03;;
33162;SDS011;29282;45.656;11.302;2022-12-07T03:12:21;3.08;;;2.53;;
33162;SDS011;29282;45.656;11.302;2022-12-07T03:14:55;4.57;;;2.85;;
33162;SDS011;29282;45.656;11.302;2022-12-07T03:17:28;3.30;;;2.97;;
33162;SDS011;29282;45.656;11.302;2022-12-07T03:19:58;3.38;;;2.60;;
33162;SDS011;29282;45.656;11.302;2022-12-07T03:22:27;3.63;;;2.90;;
33162;SDS011;29282;45.656;11.302;2022-12-07T03:25:00;3.03;;;2.72;;
33162;SDS011;29282;45.656;11.302;2022-12-07T03:27:32;5.35;;;3.10;;
33162;SDS011;29282;45.656;11.302;2022-12-07T03:32:41;4.47;;;3.05;;
33162;SDS011;29282;45.656;11.302;2022-12-07T03:41:22;2.63;;;2.42;;
33162;SDS011;29282;45.656;11.302;2022-12-07T03:43:51;3.13;;;2.63;;
33162;SDS011;29282;45.656;11.302;2022-12-07T03:49:09;3.78;;;2.80;;
33162;SDS011;29282;45.656;11.302;2022-12-07T03:51:45;3.13;;;2.80;;
33162;SDS011;29282;45.656;11.302;2022-12-07T03:54:21;7.00;;;3.20;;
33162;SDS011;29282;45.656;11.302;2022-12-07T03:56:52;4.32;;;3.03;;
33162;SDS011;29282;45.656;11.302;2022-12-07T03:59:19;3.13;;;2.83;;
33162;SDS011;29282;45.656;11.302;2022-12-07T04:01:51;3.42;;;2.83;;
33162;SDS011;29282;45.656;11.302;2022-12-07T04:04:19;2.80;;;2.50;;
33162;SDS011;29282;45.656;11.302;2022-12-07T04:06:44;4.50;;;2.85;;
33162;SDS011;29282;45.656;11.302;2022-12-07T04:09:10;3.15;;;2.75;;
33162;SDS011;29282;45.656;11.302;2022-12-07T04:11:36;2.55;;;2.33;;
33162;SDS011;29282;45.656;11.302;2022-12-07T04:14:02;2.78;;;2.45;;
33162;SDS011;29282;45.656;11.302;2022-12-07T04:16:55;3.55;;;2.70;;
33162;SDS011;29282;45.656;11.302;2022-12-07T04:19:23;4.65;;;2.85;;
33162;SDS011;29282;45.656;11.302;2022-12-07T04:21:52;2.88;;;2.47;;
33162;SDS011;29282;45.656;11.302;2022-12-07T04:24:19;2.95;;;2.65;;
33162;SDS011;29282;45.656;11.302;2022-12-07T04:26:45;2.97;;;2.67;;
33162;SDS011;29282;45.656;11.302;2022-12-07T04:29:11;3.10;;;2.65;;
33162;SDS011;29282;45.656;11.302;2022-12-07T04:31:37;4.95;;;2.63;;
33162;SDS011;29282;45.656;11.302;2022-12-07T04:34:04;3.97;;;2.83;;
33162;SDS011;29282;45.656;11.302;2022-12-07T04:36:30;6.40;;;2.75;;
33162;SDS011;29282;45.656;11.302;2022-12-07T04:38:56;3.08;;;2.33;;
33162;SDS011;29282;45.656;11.302;2022-12-07T04:41:22;3.28;;;2.67;;
33162;SDS011;29282;45.656;11.302;2022-12-07T04:43:55;2.88;;;2.45;;
33162;SDS011;29282;45.656;11.302;2022-12-07T04:46:22;3.40;;;2.33;;
33162;SDS011;29282;45.656;11.302;2022-12-07T04:48:49;2.88;;;2.50;;
33162;SDS011;29282;45.656;11.302;2022-12-07T04:51:19;3.97;;;2.60;;
33162;SDS011;29282;45.656;11.302;2022-12-07T04:53:47;4.65;;;2.50;;
33162;SDS011;29282;45.656;11.302;2022-12-07T04:56:13;3.05;;;2.58;;
33162;SDS011;29282;45.656;11.302;2022-12-07T04:58:40;3.03;;;2.42;;
33162;SDS011;29282;45.656;11.302;2022-12-07T05:01:06;3.17;;;2.83;;
33162;SDS011;29282;45.656;11.302;2022-12-07T05:03:32;2.58;;;2.30;;
33162;SDS011;29282;45.656;11.302;2022-12-07T05:05:57;3.88;;;2.17;;
33162;SDS011;29282;45.656;11.302;2022-12-07T05:08:23;2.70;;;2.10;;
33162;SDS011;29282;45.656;11.302;2022-12-07T05:10:49;2.67;;;2.22;;
33162;SDS011;29282;45.656;11.302;2022-12-07T05:13:14;2.67;;;2.28;;
33162;SDS011;29282;45.656;11.302;2022-12-07T05:15:40;5.28;;;2.22;;
33162;SDS011;29282;45.656;11.302;2022-12-07T05:18:08;3.28;;;2.40;;
33162;SDS011;29282;45.656;11.302;2022-12-07T05:20:34;2.33;;;2.00;;
33162;SDS011;29282;45.656;11.302;2022-12-07T05:22:59;2.58;;;2.38;;
33162;SDS011;29282;45.656;11.302;2022-12-07T05:25:25;2.85;;;2.50;;
33162;SDS011;29282;45.656;11.302;2022-12-07T05:27:51;2.78;;;2.25;;
33162;SDS011;29282;45.656;11.302;2022-12-07T05:30:16;3.05;;;2.03;;
33162;SDS011;29282;45.656;11.302;2022-12-07T05:32:42;2.20;;;2.00;;
33162;SDS011;29282;45.656;11.302;2022-12-07T05:35:08;3.35;;;2.30;;
33162;SDS011;29282;45.656;11.302;2022-12-07T05:37:34;13.07;;;4.55;;
33162;SDS011;29282;45.656;11.302;2022-12-07T05:40:00;20.02;;;5.68;;
33162;SDS011;29282;45.656;11.302;2022-12-07T05:42:26;21.58;;;4.90;;
33162;SDS011;29282;45.656;11.302;2022-12-07T05:44:51;14.82;;;5.18;;
33162;SDS011;29282;45.656;11.302;2022-12-07T05:47:17;14.85;;;4.38;;
33162;SDS011;29282;45.656;11.302;2022-12-07T05:49:42;17.38;;;4.05;;
33162;SDS011;29282;45.656;11.302;2022-12-07T05:52:08;10.65;;;3.95;;
33162;SDS011;29282;45.656;11.302;2022-12-07T05:54:34;13.25;;;4.10;;
33162;SDS011;29282;45.656;11.302;2022-12-07T05:56:59;14.15;;;4.65;;
33162;SDS011;29282;45.656;11.302;2022-12-07T05:59:25;10.98;;;3.97;;
33162;SDS011;29282;45.656;11.302;2022-12-07T06:01:53;8.90;;;3.65;;
33162;SDS011;29282;45.656;11.302;2022-12-07T06:04:19;10.60;;;3.80;;
33162;SDS011;29282;45.656;11.302;2022-12-07T06:06:45;10.45;;;3.65;;
33162;SDS011;29282;45.656;11.302;2022-12-07T06:09:11;11.65;;;4.03;;
33162;SDS011;29282;45.656;11.302;2022-12-07T06:11:37;11.85;;;4.03;;
33162;SDS011;29282;45.656;11.302;2022-12-07T06:14:22;13.93;;;4.15;;
33162;SDS011;29282;45.656;11.302;2022-12-07T06:16:47;14.50;;;4.15;;
33162;SDS011;29282;45.656;11.302;2022-12-07T06:19:13;11.30;;;3.88;;
33162;SDS011;29282;45.656;11.302;2022-12-07T06:21:39;11.32;;;4.22;;
33162;SDS011;29282;45.656;11.302;2022-12-07T06:24:04;7.55;;;3.35;;
33162;SDS011;29282;45.656;11.302;2022-12-07T06:26:30;6.80;;;3.38;;
33162;SDS011;29282;45.656;11.302;2022-12-07T06:28:56;10.77;;;3.65;;
33162;SDS011;29282;45.656;11.302;2022-12-07T06:31:21;8.00;;;3.92;;
33162;SDS011;29282;45.656;11.302;2022-12-07T06:33:47;11.20;;;3.78;;
33162;SDS011;29282;45.656;11.302;2022-12-07T06:36:13;9.60;;;3.80;;
33162;SDS011;29282;45.656;11.302;2022-12-07T06:38:38;9.88;;;3.88;;
33162;SDS011;29282;45.656;11.302;2022-12-07T06:41:04;11.25;;;3.40;;
33162;SDS011;29282;45.656;11.302;2022-12-07T06:43:30;7.35;;;3.38;;
33162;SDS011;29282;45.656;11.302;2022-12-07T06:45:55;7.50;;;3.58;;
33162;SDS011;29282;45.656;11.302;2022-12-07T06:48:21;8.13;;;3.80;;
33162;SDS011;29282;45.656;11.302;2022-12-07T06:50:47;8.43;;;3.83;;
33162;SDS011;29282;45.656;11.302;2022-12-07T06:53:13;10.45;;;3.83;;
33162;SDS011;29282;45.656;11.302;2022-12-07T06:55:38;9.43;;;3.80;;
33162;SDS011;29282;45.656;11.302;2022-12-07T06:58:04;9.52;;;3.90;;
33162;SDS011;29282;45.656;11.302;2022-12-07T07:00:30;7.00;;;3.67;;
33162;SDS011;29282;45.656;11.302;2022-12-07T07:02:55;7.18;;;3.80;;
33162;SDS011;29282;45.656;11.302;2022-12-07T07:05:21;10.02;;;4.65;;
33162;SDS011;29282;45.656;11.302;2022-12-07T07:07:47;8.43;;;4.40;;
33162;SDS011;29282;45.656;11.302;2022-12-07T07:10:16;6.95;;;4.32;;
33162;SDS011;29282;45.656;11.302;2022-12-07T07:12:42;7.63;;;4.10;;
33162;SDS011;29282;45.656;11.302;2022-12-07T07:15:07;13.07;;;5.35;;
33162;SDS011;29282;45.656;11.302;2022-12-07T07:17:34;12.13;;;5.28;;
33162;SDS011;29282;45.656;11.302;2022-12-07T07:19:59;8.18;;;4.85;;
33162;SDS011;29282;45.656;11.302;2022-12-07T07:22:25;10.15;;;5.00;;
33162;SDS011;29282;45.656;11.302;2022-12-07T07:24:51;7.53;;;4.68;;
33162;SDS011;29282;45.656;11.302;2022-12-07T07:27:16;8.60;;;4.70;;
33162;SDS011;29282;45.656;11.302;2022-12-07T07:29:42;8.57;;;4.95;;
33162;SDS011;29282;45.656;11.302;2022-12-07T07:32:07;9.23;;;4.65;;
33162;SDS011;29282;45.656;11.302;2022-12-07T07:34:33;12.00;;;5.28;;
33162;SDS011;29282;45.656;11.302;2022-12-07T07:36:59;8.95;;;5.70;;
33162;SDS011;29282;45.656;11.302;2022-12-07T07:39:25;11.50;;;5.47;;
33162;SDS011;29282;45.656;11.302;2022-12-07T07:41:50;9.57;;;4.80;;
33162;SDS011;29282;45.656;11.302;2022-12-07T07:44:16;6.43;;;4.45;;
33162;SDS011;29282;45.656;11.302;2022-12-07T07:46:41;16.80;;;5.90;;
33162;SDS011;29282;45.656;11.302;2022-12-07T07:49:08;16.17;;;5.70;;
33162;SDS011;29282;45.656;11.302;2022-12-07T07:51:35;19.35;;;5.85;;
33162;SDS011;29282;45.656;11.302;2022-12-07T07:54:00;17.92;;;5.13;;
33162;SDS011;29282;45.656;11.302;2022-12-07T07:56:26;11.10;;;4.78;;
33162;SDS011;29282;45.656;11.302;2022-12-07T07:58:52;11.35;;;5.45;;
33162;SDS011;29282;45.656;11.302;2022-12-07T08:01:17;13.50;;;5.90;;
33162;SDS011;29282;45.656;11.302;2022-12-07T08:03:45;6.95;;;4.65;;
33162;SDS011;29282;45.656;11.302;2022-12-07T08:06:13;11.00;;;5.20;;
33162;SDS011;29282;45.656;11.302;2022-12-07T08:08:39;10.25;;;5.40;;
33162;SDS011;29282;45.656;11.302;2022-12-07T08:11:05;10.38;;;5.13;;
33162;SDS011;29282;45.656;11.302;2022-12-07T08:13:31;14.38;;;5.20;;
33162;SDS011;29282;45.656;11.302;2022-12-07T08:15:57;10.68;;;5.35;;
33162;SDS011;29282;45.656;11.302;2022-12-07T08:18:23;12.15;;;5.00;;
33162;SDS011;29282;45.656;11.302;2022-12-07T08:20:48;13.85;;;4.75;;
33162;SDS011;29282;45.656;11.302;2022-12-07T08:23:14;8.05;;;4.78;;
33162;SDS011;29282;45.656;11.302;2022-12-07T08:25:39;11.98;;;5.53;;
33162;SDS011;29282;45.656;11.302;2022-12-07T08:28:05;8.70;;;4.93;;
33162;SDS011;29282;45.656;11.302;2022-12-07T08:30:32;9.77;;;4.85;;
33162;SDS011;29282;45.656;11.302;2022-12-07T08:32:57;13.85;;;5.57;;
33162;SDS011;29282;45.656;11.302;2022-12-07T08:35:23;9.05;;;5.35;;
33162;SDS011;29282;45.656;11.302;2022-12-07T08:37:49;10.98;;;4.95;;
33162;SDS011;29282;45.656;11.302;2022-12-07T08:40:15;9.27;;;5.13;;
33162;SDS011;29282;45.656;11.302;2022-12-07T08:42:41;9.05;;;4.68;;
33162;SDS011;29282;45.656;11.302;2022-12-07T08:45:10;8.27;;;5.25;;
33162;SDS011;29282;45.656;11.302;2022-12-07T08:47:39;6.97;;;4.90;;
33162;SDS011;29282;45.656;11.302;2022-12-07T08:50:07;9.32;;;5.20;;
33162;SDS011;29282;45.656;11.302;2022-12-07T08:52:35;9.27;;;5.13;;
33162;SDS011;29282;45.656;11.302;2022-12-07T08:55:01;11.38;;;5.53;;
33162;SDS011;29282;45.656;11.302;2022-12-07T08:57:28;8.48;;;5.32;;
33162;SDS011;29282;45.656;11.302;2022-12-07T08:59:54;8.57;;;5.35;;
33162;SDS011;29282;45.656;11.302;2022-12-07T09:02:20;7.50;;;4.40;;
33162;SDS011;29282;45.656;11.302;2022-12-07T09:04:46;9.93;;;4.63;;
33162;SDS011;29282;45.656;11.302;2022-12-07T09:07:11;7.50;;;4.88;;
33162;SDS011;29282;45.656;11.302;2022-12-07T09:09:37;8.80;;;4.90;;
33162;SDS011;29282;45.656;11.302;2022-12-07T09:12:03;10.43;;;5.03;;
33162;SDS011;29282;45.656;11.302;2022-12-07T09:14:28;11.18;;;5.22;;
33162;SDS011;29282;45.656;11.302;2022-12-07T09:16:54;9.23;;;4.93;;
33162;SDS011;29282;45.656;11.302;2022-12-07T09:19:19;6.13;;;4.53;;
33162;SDS011;29282;45.656;11.302;2022-12-07T09:21:45;6.00;;;4.75;;
33162;SDS011;29282;45.656;11.302;2022-12-07T09:24:11;6.93;;;4.82;;
33162;SDS011;29282;45.656;11.302;2022-12-07T09:26:37;7.32;;;4.63;;
33162;SDS011;29282;45.656;11.302;2022-12-07T09:29:05;7.10;;;4.93;;
33162;SDS011;29282;45.656;11.302;2022-12-07T09:31:31;6.90;;;4.82;;
33162;SDS011;29282;45.656;11.302;2022-12-07T09:33:57;5.18;;;4.50;;
33162;SDS011;29282;45.656;11.302;2022-12-07T09:36:24;7.60;;;5.05;;
33162;SDS011;29282;45.656;11.302;2022-12-07T09:38:50;8.18;;;4.95;;
33162;SDS011;29282;45.656;11.302;2022-12-07T09:41:16;4.70;;;4.20;;
33162;SDS011;29282;45.656;11.302;2022-12-07T09:43:42;7.75;;;5.00;;
33162;SDS011;29282;45.656;11.302;2022-12-07T09:46:09;6.63;;;4.50;;
33162;SDS011;29282;45.656;11.302;2022-12-07T09:48:39;5.70;;;4.45;;
33162;SDS011;29282;45.656;11.302;2022-12-07T09:51:14;8.73;;;4.65;;
33162;SDS011;29282;45.656;11.302;2022-12-07T09:53:42;8.50;;;4.88;;
33162;SDS011;29282;45.656;11.302;2022-12-07T09:56:10;7.85;;;4.72;;
33162;SDS011;29282;45.656;11.302;2022-12-07T09:58:38;7.95;;;5.00;;
33162;SDS011;29282;45.656;11.302;2022-12-07T10:03:33;5.65;;;4.60;;
33162;SDS011;29282;45.656;11.302;2022-12-07T10:06:00;7.22;;;4.50;;
33162;SDS011;29282;45.656;11.302;2022-12-07T10:08:27;6.32;;;4.50;;
33162;SDS011;29282;45.656;11.302;2022-12-07T10:10:53;5.85;;;4.28;;
33162;SDS011;29282;45.656;11.302;2022-12-07T10:13:22;7.97;;;4.95;;
33162;SDS011;29282;45.656;11.302;2022-12-07T10:15:59;6.57;;;4.10;;
33162;SDS011;29282;45.656;11.302;2022-12-07T10:18:27;7.13;;;4.28;;
33162;SDS011;29282;45.656;11.302;2022-12-07T10:23:33;6.93;;;4.30;;
33162;SDS011;29282;45.656;11.302;2022-12-07T10:25:59;7.22;;;4.55;;
33162;SDS011;29282;45.656;11.302;2022-12-07T10:28:46;7.72;;;4.78;;
33162;SDS011;29282;45.656;11.302;2022-12-07T10:31:17;7.18;;;4.40;;
33162;SDS011;29282;45.656;11.302;2022-12-07T10:33:53;8.00;;;4.75;;
33162;SDS011;29282;45.656;11.302;2022-12-07T10:41:29;7.40;;;4.55;;
33162;SDS011;29282;45.656;11.302;2022-12-07T10:43:56;5.95;;;4.70;;
33162;SDS011;29282;45.656;11.302;2022-12-07T10:51:52;7.15;;;4.55;;
33162;SDS011;29282;45.656;11.302;2022-12-07T10:57:19;5.90;;;4.50;;
33162;SDS011;29282;45.656;11.302;2022-12-07T11:05:10;5.97;;;4.10;;
33162;SDS011;29282;45.656;11.302;2022-12-07T11:14:09;7.07;;;4.50;;
33162;SDS011;29282;45.656;11.302;2022-12-07T11:16:21;6.68;;;4.40;;
33162;SDS011;29282;45.656;11.302;2022-12-07T11:18:51;8.50;;;4.63;;
33162;SDS011;29282;45.656;11.302;2022-12-07T11:24:17;6.18;;;4.30;;
33162;SDS011;29282;45.656;11.302;2022-12-07T11:37:15;5.53;;;4.00;;
33162;SDS011;29282;45.656;11.302;2022-12-07T11:39:49;6.43;;;4.63;;
33162;SDS011;29282;45.656;11.302;2022-12-07T11:42:27;4.93;;;3.90;;
33162;SDS011;29282;45.656;11.302;2022-12-07T11:47:52;6.70;;;4.70;;
33162;SDS011;29282;45.656;11.302;2022-12-07T12:01:22;7.65;;;3.90;;
33162;SDS011;29282;45.656;11.302;2022-12-07T12:03:58;6.68;;;3.85;;
33162;SDS011;29282;45.656;11.302;2022-12-07T12:06:35;7.72;;;4.22;;
33162;SDS011;29282;45.656;11.302;2022-12-07T12:14:36;6.22;;;3.75;;
33162;SDS011;29282;45.656;11.302;2022-12-07T12:23:18;6.38;;;4.22;;
33162;SDS011;29282;45.656;11.302;2022-12-07T12:25:51;5.90;;;4.03;;
33162;SDS011;29282;45.656;11.302;2022-12-07T12:31:15;5.03;;;3.97;;
33162;SDS011;29282;45.656;11.302;2022-12-07T12:33:48;7.28;;;3.92;;
33162;SDS011;29282;45.656;11.302;2022-12-07T12:46:49;4.75;;;3.95;;
33162;SDS011;29282;45.656;11.302;2022-12-07T12:51:55;4.90;;;3.50;;
33162;SDS011;29282;45.656;11.302;2022-12-07T12:54:22;6.97;;;3.75;;
33162;SDS011;29282;45.656;11.302;2022-12-07T12:59:36;5.80;;;3.92;;
33162;SDS011;29282;45.656;11.302;2022-12-07T13:02:20;7.15;;;3.72;;
33162;SDS011;29282;45.656;11.302;2022-12-07T13:04:59;5.20;;;3.88;;
33162;SDS011;29282;45.656;11.302;2022-12-07T13:34:32;8.70;;;3.65;;
33162;SDS011;29282;45.656;11.302;2022-12-07T13:39:54;5.40;;;3.33;;
33162;SDS011;29282;45.656;11.302;2022-12-07T13:42:34;6.80;;;3.75;;
33162;SDS011;29282;45.656;11.302;2022-12-07T13:48:18;5.40;;;3.70;;
33162;SDS011;29282;45.656;11.302;2022-12-07T13:50:53;5.50;;;3.65;;
33162;SDS011;29282;45.656;11.302;2022-12-07T13:53:20;8.60;;;3.75;;
33162;SDS011;29282;45.656;11.302;2022-12-07T13:55:47;5.28;;;3.55;;
33162;SDS011;29282;45.656;11.302;2022-12-07T13:58:13;8.05;;;3.45;;
33162;SDS011;29282;45.656;11.302;2022-12-07T14:00:39;8.75;;;4.00;;
33162;SDS011;29282;45.656;11.302;2022-12-07T14:05:38;8.25;;;3.92;;
33162;SDS011;29282;45.656;11.302;2022-12-07T14:10:38;7.60;;;3.60;;
33162;SDS011;29282;45.656;11.302;2022-12-07T14:13:37;9.68;;;3.65;;
33162;SDS011;29282;45.656;11.302;2022-12-07T14:18:47;7.53;;;3.50;;
33162;SDS011;29282;45.656;11.302;2022-12-07T14:23:38;7.50;;;3.60;;
33162;SDS011;29282;45.656;11.302;2022-12-07T14:26:12;8.80;;;3.90;;
33162;SDS011;29282;45.656;11.302;2022-12-07T14:28:39;6.65;;;3.38;;
33162;SDS011;29282;45.656;11.302;2022-12-07T14:31:16;5.88;;;3.28;;
33162;SDS011;29282;45.656;11.302;2022-12-07T14:33:45;10.43;;;3.78;;
33162;SDS011;29282;45.656;11.302;2022-12-07T14:36:10;6.28;;;3.80;;
33162;SDS011;29282;45.656;11.302;2022-12-07T14:38:37;8.35;;;3.50;;
33162;SDS011;29282;45.656;11.302;2022-12-07T14:41:04;7.63;;;3.78;;
33162;SDS011;29282;45.656;11.302;2022-12-07T14:43:49;7.10;;;3.58;;
33162;SDS011;29282;45.656;11.302;2022-12-07T14:46:15;6.18;;;3.40;;
33162;SDS011;29282;45.656;11.302;2022-12-07T14:48:41;7.50;;;3.80;;
33162;SDS011;29282;45.656;11.302;2022-12-07T14:51:07;9.50;;;3.60;;
33162;SDS011;29282;45.656;11.302;2022-12-07T14:53:36;6.47;;;3.58;;
33162;SDS011;29282;45.656;11.302;2022-12-07T14:56:07;4.75;;;3.20;;
33162;SDS011;29282;45.656;11.302;2022-12-07T14:58:33;7.70;;;3.33;;
33162;SDS011;29282;45.656;11.302;2022-12-07T15:00:59;6.30;;;3.45;;
33162;SDS011;29282;45.656;11.302;2022-12-07T15:03:25;8.43;;;3.42;;
33162;SDS011;29282;45.656;11.302;2022-12-07T15:05:50;4.15;;;3.22;;
33162;SDS011;29282;45.656;11.302;2022-12-07T15:08:16;6.40;;;3.50;;
33162;SDS011;29282;45.656;11.302;2022-12-07T15:10:41;5.72;;;3.97;;
33162;SDS011;29282;45.656;11.302;2022-12-07T15:13:07;7.43;;;3.45;;
33162;SDS011;29282;45.656;11.302;2022-12-07T15:15:52;6.22;;;3.42;;
33162;SDS011;29282;45.656;11.302;2022-12-07T15:18:18;5.13;;;3.28;;
33162;SDS011;29282;45.656;11.302;2022-12-07T15:20:45;5.75;;;3.38;;
33162;SDS011;29282;45.656;11.302;2022-12-07T15:23:12;4.47;;;3.03;;
33162;SDS011;29282;45.656;11.302;2022-12-07T15:25:44;9.30;;;3.47;;
33162;SDS011;29282;45.656;11.302;2022-12-07T15:28:12;5.90;;;3.50;;
33162;SDS011;29282;45.656;11.302;2022-12-07T15:30:38;3.42;;;3.13;;
33162;SDS011;29282;45.656;11.302;2022-12-07T15:33:04;5.57;;;3.47;;
33162;SDS011;29282;45.656;11.302;2022-12-07T15:35:30;5.13;;;3.65;;
33162;SDS011;29282;45.656;11.302;2022-12-07T15:37:55;5.32;;;3.45;;
33162;SDS011;29282;45.656;11.302;2022-12-07T15:40:21;5.13;;;3.70;;
33162;SDS011;29282;45.656;11.302;2022-12-07T15:42:46;4.55;;;3.40;;
33162;SDS011;29282;45.656;11.302;2022-12-07T15:45:12;6.57;;;4.10;;
33162;SDS011;29282;45.656;11.302;2022-12-07T15:47:42;8.32;;;4.25;;
33162;SDS011;29282;45.656;11.302;2022-12-07T15:50:13;5.10;;;3.75;;
33162;SDS011;29282;45.656;11.302;2022-12-07T15:52:40;6.20;;;3.50;;
33162;SDS011;29282;45.656;11.302;2022-12-07T15:55:06;5.32;;;3.60;;
33162;SDS011;29282;45.656;11.302;2022-12-07T15:57:32;7.95;;;3.80;;
33162;SDS011;29282;45.656;11.302;2022-12-07T15:59:59;6.05;;;3.60;;
33162;SDS011;29282;45.656;11.302;2022-12-07T16:02:25;10.35;;;4.05;;
33162;SDS011;29282;45.656;11.302;2022-12-07T16:04:51;10.13;;;4.32;;
33162;SDS011;29282;45.656;11.302;2022-12-07T16:07:17;6.47;;;4.00;;
33162;SDS011;29282;45.656;11.302;2022-12-07T16:09:43;7.97;;;4.10;;
33162;SDS011;29282;45.656;11.302;2022-12-07T16:12:10;5.72;;;3.92;;
33162;SDS011;29282;45.656;11.302;2022-12-07T16:14:37;6.53;;;4.10;;
33162;SDS011;29282;45.656;11.302;2022-12-07T16:17:03;4.82;;;3.83;;
33162;SDS011;29282;45.656;11.302;2022-12-07T16:19:29;7.55;;;3.78;;
33162;SDS011;29282;45.656;11.302;2022-12-07T16:21:56;7.20;;;4.00;;
33162;SDS011;29282;45.656;11.302;2022-12-07T16:24:21;5.47;;;3.88;;
33162;SDS011;29282;45.656;11.302;2022-12-07T16:26:47;7.15;;;3.90;;
33162;SDS011;29282;45.656;11.302;2022-12-07T16:29:14;7.82;;;4.07;;
33162;SDS011;29282;45.656;11.302;2022-12-07T16:31:40;7.18;;;3.83;;
33162;SDS011;29282;45.656;11.302;2022-12-07T16:34:06;7.03;;;3.95;;
33162;SDS011;29282;45.656;11.302;2022-12-07T16:36:32;12.32;;;4.43;;
33162;SDS011;29282;45.656;11.302;2022-12-07T16:38:58;5.28;;;3.47;;
33162;SDS011;29282;45.656;11.302;2022-12-07T16:41:25;7.45;;;4.35;;
33162;SDS011;29282;45.656;11.302;2022-12-07T16:43:50;7.28;;;4.30;;
33162;SDS011;29282;45.656;11.302;2022-12-07T16:46:16;4.93;;;4.05;;
33162;SDS011;29282;45.656;11.302;2022-12-07T16:48:42;8.07;;;4.30;;
33162;SDS011;29282;45.656;11.302;2022-12-07T16:51:08;7.07;;;4.35;;
33162;SDS011;29282;45.656;11.302;2022-12-07T16:53:36;7.85;;;4.57;;
33162;SDS011;29282;45.656;11.302;2022-12-07T16:56:02;4.80;;;4.00;;
33162;SDS011;29282;45.656;11.302;2022-12-07T16:58:28;5.32;;;3.53;;
33162;SDS011;29282;45.656;11.302;2022-12-07T17:00:55;6.28;;;4.40;;
33162;SDS011;29282;45.656;11.302;2022-12-07T17:03:21;7.32;;;4.43;;
33162;SDS011;29282;45.656;11.302;2022-12-07T17:05:46;5.88;;;4.15;;
33162;SDS011;29282;45.656;11.302;2022-12-07T17:08:12;8.13;;;4.07;;
33162;SDS011;29282;45.656;11.302;2022-12-07T17:10:39;5.28;;;3.90;;
33162;SDS011;29282;45.656;11.302;2022-12-07T17:13:06;7.32;;;4.43;;
33162;SDS011;29282;45.656;11.302;2022-12-07T17:16:01;6.15;;;4.25;;
33162;SDS011;29282;45.656;11.302;2022-12-07T17:18:30;6.40;;;4.40;;
33162;SDS011;29282;45.656;11.302;2022-12-07T17:21:07;8.48;;;4.65;;
33162;SDS011;29282;45.656;11.302;2022-12-07T17:23:34;6.75;;;4.38;;
33162;SDS011;29282;45.656;11.302;2022-12-07T17:26:11;7.90;;;4.75;;